sensor_id;sensor_type;location;lat;lon;timestamp;temperature;humidity
3944;DHT22;1986;52.546;13.428;2024-01-06T00:00:49;0.90;99.90
3944;DHT22;1986;52.546;13.428;2024-01-06T00:03:17;0.90;99.90
3944;DHT22;1986;52.546;13.428;2024-01-06T00:05:44;0.90;99.90
3944;DHT22;1986;52.546;13.428;2024-01-06T00:08:11;0.90;99.90
3944;DHT22;1986;52.546;13.428;2024-01-06T00:10:40;0.90;99.90
3944;DHT22;1986;52.546;13.428;2024-01-06T00:13:07;0.90;99.90
3944;DHT22;1986;52.546;13.428;2024-01-06T00:15:34;0.90;99.90
3944;DHT22;1986;52.546;13.428;2024-01-06T00:18:01;0.90;99.90
3944;DHT22;1986;52.546;13.428;2024-01-06T00:20:30;0.90;99.90
3944;DHT22;1986;52.546;13.428;2024-01-06T00:22:57;0.90;99.90
3944;DHT22;1986;52.546;13.428;2024-01-06T00:25:24;0.90;99.90
3944;DHT22;1986;52.546;13.428;2024-01-06T00:27:51;0.90;99.90
3944;DHT22;1986;52.546;13.428;2024-01-06T00:30:18;0.90;99.90
3944;DHT22;1986;52.546;13.428;2024-01-06T00:32:45;0.90;99.90
3944;DHT22;1986;52.546;13.428;2024-01-06T00:35:12;0.90;99.90
3944;DHT22;1986;52.546;13.428;2024-01-06T00:37:41;0.80;99.90
3944;DHT22;1986;52.546;13.428;2024-01-06T00:40:08;0.90;99.90
3944;DHT22;1986;52.546;13.428;2024-01-06T00:42:35;0.90;99.90
3944;DHT22;1986;52.546;13.428;2024-01-06T00:45:02;0.80;99.90
3944;DHT22;1986;52.546;13.428;2024-01-06T00:47:30;0.80;99.90
3944;DHT22;1986;52.546;13.428;2024-01-06T00:49:57;0.80;99.90
3944;DHT22;1986;52.546;13.428;2024-01-06T00:52:24;0.80;99.90
3944;DHT22;1986;52.546;13.428;2024-01-06T00:54:53;0.80;99.90
3944;DHT22;1986;52.546;13.428;2024-01-06T00:57:21;0.80;99.90
3944;DHT22;1986;52.546;13.428;2024-01-06T00:59:49;0.80;99.90
3944;DHT22;1986;52.546;13.428;2024-01-06T01:02:17;0.80;99.90
3944;DHT22;1986;52.546;13.428;2024-01-06T01:04:43;0.80;99.90
3944;DHT22;1986;52.546;13.428;2024-01-06T01:07:10;0.80;99.90
3944;DHT22;1986;52.546;13.428;2024-01-06T01:09:38;0.80;99.90
3944;DHT22;1986;52.546;13.428;2024-01-06T01:12:07;0.80;99.90
3944;DHT22;1986;52.546;13.428;2024-01-06T01:14:34;0.80;99.90
3944;DHT22;1986;52.546;13.428;2024-01-06T01:17:01;0.80;99.90
3944;DHT22;1986;52.546;13.428;2024-01-06T01:19:28;0.80;99.90
3944;DHT22;1986;52.546;13.428;2024-01-06T01:21:55;0.80;99.90
3944;DHT22;1986;52.546;13.428;2024-01-06T01:24:22;0.80;99.90
3944;DHT22;1986;52.546;13.428;2024-01-06T01:26:49;0.80;99.90
3944;DHT22;1986;52.546;13.428;2024-01-06T01:29:17;0.80;99.90
3944;DHT22;1986;52.546;13.428;2024-01-06T01:31:45;0.80;99.90
3944;DHT22;1986;52.546;13.428;2024-01-06T01:34:12;0.80;99.90
3944;DHT22;1986;52.546;13.428;2024-01-06T01:36:40;0.80;99.90
3944;DHT22;1986;52.546;13.428;2024-01-06T01:39:09;0.80;99.90
3944;DHT22;1986;52.546;13.428;2024-01-06T01:41:37;0.80;99.90
3944;DHT22;1986;52.546;13.428;2024-01-06T01:44:04;0.80;99.90
3944;DHT22;1986;52.546;13.428;2024-01-06T01:46:32;0.70;99.90
3944;DHT22;1986;52.546;13.428;2024-01-06T01:49:04;0.80;99.90
3944;DHT22;1986;52.546;13.428;2024-01-06T01:51:34;0.80;99.90
3944;DHT22;1986;52.546;13.428;2024-01-06T01:54:02;0.80;99.90
3944;DHT22;1986;52.546;13.428;2024-01-06T01:56:31;0.80;99.90
3944;DHT22;1986;52.546;13.428;2024-01-06T01:59:01;0.70;99.90
3944;DHT22;1986;52.546;13.428;2024-01-06T02:01:32;0.80;99.90
3944;DHT22;1986;52.546;13.428;2024-01-06T02:04:00;0.80;99.90
3944;DHT22;1986;52.546;13.428;2024-01-06T02:06:27;0.70;99.90
3944;DHT22;1986;52.546;13.428;2024-01-06T02:08:54;0.70;99.90
3944;DHT22;1986;52.546;13.428;2024-01-06T02:11:21;0.70;99.90
3944;DHT22;1986;52.546;13.428;2024-01-06T02:13:48;0.70;99.90
3944;DHT22;1986;52.546;13.428;2024-01-06T02:16:16;0.70;99.90
3944;DHT22;1986;52.546;13.428;2024-01-06T02:18:44;0.70;99.90
3944;DHT22;1986;52.546;13.428;2024-01-06T02:21:11;0.70;99.90
3944;DHT22;1986;52.546;13.428;2024-01-06T02:23:43;0.60;99.90
3944;DHT22;1986;52.546;13.428;2024-01-06T02:26:10;0.60;99.90
3944;DHT22;1986;52.546;13.428;2024-01-06T02:28:38;0.70;99.90
3944;DHT22;1986;52.546;13.428;2024-01-06T02:31:05;0.70;99.90
3944;DHT22;1986;52.546;13.428;2024-01-06T02:33:32;0.70;99.90
3944;DHT22;1986;52.546;13.428;2024-01-06T02:35:59;0.70;99.90
3944;DHT22;1986;52.546;13.428;2024-01-06T02:38:26;0.60;99.90
3944;DHT22;1986;52.546;13.428;2024-01-06T02:40:56;0.60;99.90
3944;DHT22;1986;52.546;13.428;2024-01-06T02:43:23;0.70;99.90
3944;DHT22;1986;52.546;13.428;2024-01-06T02:45:50;0.70;99.90
3944;DHT22;1986;52.546;13.428;2024-01-06T02:48:16;0.70;99.90
3944;DHT22;1986;52.546;13.428;2024-01-06T02:50:46;0.70;99.90
3944;DHT22;1986;52.546;13.428;2024-01-06T02:53:13;0.70;99.90
3944;DHT22;1986;52.546;13.428;2024-01-06T02:55:39;0.70;99.90
3944;DHT22;1986;52.546;13.428;2024-01-06T02:58:08;0.60;99.90
3944;DHT22;1986;52.546;13.428;2024-01-06T03:00:36;0.60;99.90
3944;DHT22;1986;52.546;13.428;2024-01-06T03:03:03;0.60;99.90
3944;DHT22;1986;52.546;13.428;2024-01-06T03:05:32;0.60;99.90
3944;DHT22;1986;52.546;13.428;2024-01-06T03:07:58;0.60;99.90
3944;DHT22;1986;52.546;13.428;2024-01-06T03:10:26;0.60;99.90
3944;DHT22;1986;52.546;13.428;2024-01-06T03:12:53;0.70;99.90
3944;DHT22;1986;52.546;13.428;2024-01-06T03:15:22;0.70;99.90
3944;DHT22;1986;52.546;13.428;2024-01-06T03:17:49;0.70;99.90
3944;DHT22;1986;52.546;13.428;2024-01-06T03:20:18;0.70;99.90
3944;DHT22;1986;52.546;13.428;2024-01-06T03:22:45;0.70;99.90
3944;DHT22;1986;52.546;13.428;2024-01-06T03:25:12;0.70;99.90
3944;DHT22;1986;52.546;13.428;2024-01-06T03:27:40;0.70;99.90
3944;DHT22;1986;52.546;13.428;2024-01-06T03:30:08;0.70;99.90
3944;DHT22;1986;52.546;13.428;2024-01-06T03:32:36;0.70;99.90
3944;DHT22;1986;52.546;13.428;2024-01-06T03:35:05;0.70;99.90
3944;DHT22;1986;52.546;13.428;2024-01-06T03:37:33;0.70;99.90
3944;DHT22;1986;52.546;13.428;2024-01-06T03:40:00;0.70;99.90
3944;DHT22;1986;52.546;13.428;2024-01-06T03:42:28;0.70;99.90
3944;DHT22;1986;52.546;13.428;2024-01-06T03:44:56;0.70;99.90
3944;DHT22;1986;52.546;13.428;2024-01-06T03:47:23;0.70;99.90
3944;DHT22;1986;52.546;13.428;2024-01-06T03:49:51;0.70;99.90
3944;DHT22;1986;52.546;13.428;2024-01-06T03:52:19;0.60;99.90
3944;DHT22;1986;52.546;13.428;2024-01-06T03:54:46;0.70;99.90
3944;DHT22;1986;52.546;13.428;2024-01-06T03:57:13;0.70;99.90
3944;DHT22;1986;52.546;13.428;2024-01-06T03:59:42;0.60;99.90
3944;DHT22;1986;52.546;13.428;2024-01-06T04:02:09;0.70;99.90
3944;DHT22;1986;52.546;13.428;2024-01-06T04:04:36;0.70;99.90
3944;DHT22;1986;52.546;13.428;2024-01-06T04:07:05;0.70;99.90
3944;DHT22;1986;52.546;13.428;2024-01-06T04:09:32;0.70;99.90
3944;DHT22;1986;52.546;13.428;2024-01-06T04:11:59;0.70;99.90
3944;DHT22;1986;52.546;13.428;2024-01-06T04:14:28;0.70;99.90
3944;DHT22;1986;52.546;13.428;2024-01-06T04:16:55;0.70;99.90
3944;DHT22;1986;52.546;13.428;2024-01-06T04:19:22;0.70;99.90
3944;DHT22;1986;52.546;13.428;2024-01-06T04:21:49;0.70;99.90
3944;DHT22;1986;52.546;13.428;2024-01-06T04:24:17;0.70;99.90
3944;DHT22;1986;52.546;13.428;2024-01-06T04:26:45;0.70;99.90
3944;DHT22;1986;52.546;13.428;2024-01-06T04:29:12;0.70;99.90
3944;DHT22;1986;52.546;13.428;2024-01-06T04:31:39;0.70;99.90
3944;DHT22;1986;52.546;13.428;2024-01-06T04:34:06;0.70;99.90
3944;DHT22;1986;52.546;13.428;2024-01-06T04:36:33;0.70;99.90
3944;DHT22;1986;52.546;13.428;2024-01-06T04:39:00;0.70;99.90
3944;DHT22;1986;52.546;13.428;2024-01-06T04:41:28;0.70;99.90
3944;DHT22;1986;52.546;13.428;2024-01-06T04:43:55;0.70;99.90
3944;DHT22;1986;52.546;13.428;2024-01-06T04:46:22;0.60;99.90
3944;DHT22;1986;52.546;13.428;2024-01-06T04:48:50;0.70;99.90
3944;DHT22;1986;52.546;13.428;2024-01-06T04:51:17;0.70;99.90
3944;DHT22;1986;52.546;13.428;2024-01-06T04:53:44;0.70;99.90
3944;DHT22;1986;52.546;13.428;2024-01-06T04:56:12;0.60;99.90
3944;DHT22;1986;52.546;13.428;2024-01-06T04:58:41;0.60;99.90
3944;DHT22;1986;52.546;13.428;2024-01-06T05:01:08;0.70;99.90
3944;DHT22;1986;52.546;13.428;2024-01-06T05:03:35;0.70;99.90
3944;DHT22;1986;52.546;13.428;2024-01-06T05:06:02;0.70;99.90
3944;DHT22;1986;52.546;13.428;2024-01-06T05:08:29;0.70;99.90
3944;DHT22;1986;52.546;13.428;2024-01-06T05:10:57;0.70;99.90
3944;DHT22;1986;52.546;13.428;2024-01-06T05:13:24;0.70;99.90
3944;DHT22;1986;52.546;13.428;2024-01-06T05:15:52;0.70;99.90
3944;DHT22;1986;52.546;13.428;2024-01-06T05:18:19;0.60;99.90
3944;DHT22;1986;52.546;13.428;2024-01-06T05:20:46;0.60;99.90
3944;DHT22;1986;52.546;13.428;2024-01-06T05:23:13;0.60;99.90
3944;DHT22;1986;52.546;13.428;2024-01-06T05:25:40;0.50;99.90
3944;DHT22;1986;52.546;13.428;2024-01-06T05:28:07;0.60;99.90
3944;DHT22;1986;52.546;13.428;2024-01-06T05:30:34;0.60;99.90
3944;DHT22;1986;52.546;13.428;2024-01-06T05:33:03;0.60;99.90
3944;DHT22;1986;52.546;13.428;2024-01-06T05:35:30;0.60;99.90
3944;DHT22;1986;52.546;13.428;2024-01-06T05:37:57;0.60;99.90
3944;DHT22;1986;52.546;13.428;2024-01-06T05:40:26;0.50;99.90
3944;DHT22;1986;52.546;13.428;2024-01-06T05:42:53;0.50;99.90
3944;DHT22;1986;52.546;13.428;2024-01-06T05:45:21;0.50;99.90
3944;DHT22;1986;52.546;13.428;2024-01-06T05:47:48;0.50;99.90
3944;DHT22;1986;52.546;13.428;2024-01-06T05:50:17;0.40;99.90
3944;DHT22;1986;52.546;13.428;2024-01-06T05:52:44;0.50;99.90
3944;DHT22;1986;52.546;13.428;2024-01-06T05:55:13;0.40;99.90
3944;DHT22;1986;52.546;13.428;2024-01-06T05:57:40;0.40;99.90
3944;DHT22;1986;52.546;13.428;2024-01-06T06:00:09;0.50;99.90
3944;DHT22;1986;52.546;13.428;2024-01-06T06:02:36;0.50;99.90
3944;DHT22;1986;52.546;13.428;2024-01-06T06:05:04;0.50;99.90
3944;DHT22;1986;52.546;13.428;2024-01-06T06:07:33;0.50;99.90
3944;DHT22;1986;52.546;13.428;2024-01-06T06:10:06;0.40;99.90
3944;DHT22;1986;52.546;13.428;2024-01-06T06:12:36;0.30;99.90
3944;DHT22;1986;52.546;13.428;2024-01-06T06:15:04;0.40;99.90
3944;DHT22;1986;52.546;13.428;2024-01-06T06:17:31;0.30;99.90
3944;DHT22;1986;52.546;13.428;2024-01-06T06:19:59;0.30;99.90
3944;DHT22;1986;52.546;13.428;2024-01-06T06:22:26;0.30;99.90
3944;DHT22;1986;52.546;13.428;2024-01-06T06:24:58;0.30;99.90
3944;DHT22;1986;52.546;13.428;2024-01-06T06:27:25;0.30;99.90
3944;DHT22;1986;52.546;13.428;2024-01-06T06:29:52;0.20;99.90
3944;DHT22;1986;52.546;13.428;2024-01-06T06:32:19;0.20;99.90
3944;DHT22;1986;52.546;13.428;2024-01-06T06:34:50;0.30;99.90
3944;DHT22;1986;52.546;13.428;2024-01-06T06:37:18;0.30;99.90
3944;DHT22;1986;52.546;13.428;2024-01-06T06:39:46;0.30;99.90
3944;DHT22;1986;52.546;13.428;2024-01-06T06:42:16;0.30;99.90
3944;DHT22;1986;52.546;13.428;2024-01-06T06:44:44;0.40;99.90
3944;DHT22;1986;52.546;13.428;2024-01-06T06:47:17;0.30;99.90
3944;DHT22;1986;52.546;13.428;2024-01-06T06:49:47;0.30;99.90
3944;DHT22;1986;52.546;13.428;2024-01-06T06:52:14;0.30;99.90
3944;DHT22;1986;52.546;13.428;2024-01-06T06:54:43;0.30;99.90
3944;DHT22;1986;52.546;13.428;2024-01-06T06:57:11;0.20;99.90
3944;DHT22;1986;52.546;13.428;2024-01-06T06:59:42;0.20;99.90
3944;DHT22;1986;52.546;13.428;2024-01-06T07:02:10;0.20;99.90
3944;DHT22;1986;52.546;13.428;2024-01-06T07:04:37;0.30;99.90
3944;DHT22;1986;52.546;13.428;2024-01-06T07:07:04;0.30;99.90
3944;DHT22;1986;52.546;13.428;2024-01-06T07:09:34;0.20;99.90
3944;DHT22;1986;52.546;13.428;2024-01-06T07:12:01;0.20;99.90
3944;DHT22;1986;52.546;13.428;2024-01-06T07:14:28;0.20;99.90
3944;DHT22;1986;52.546;13.428;2024-01-06T07:16:56;0.10;99.90
3944;DHT22;1986;52.546;13.428;2024-01-06T07:19:24;0.10;99.90
3944;DHT22;1986;52.546;13.428;2024-01-06T07:21:52;0.10;99.90
3944;DHT22;1986;52.546;13.428;2024-01-06T07:24:19;0.00;99.90
3944;DHT22;1986;52.546;13.428;2024-01-06T07:26:47;0.10;99.90
3944;DHT22;1986;52.546;13.428;2024-01-06T07:29:14;0.10;99.90
3944;DHT22;1986;52.546;13.428;2024-01-06T07:31:41;0.00;99.90
3944;DHT22;1986;52.546;13.428;2024-01-06T07:34:10;0.00;99.90
3944;DHT22;1986;52.546;13.428;2024-01-06T07:36:37;0.00;99.90
3944;DHT22;1986;52.546;13.428;2024-01-06T07:39:05;0.10;99.90
3944;DHT22;1986;52.546;13.428;2024-01-06T07:41:32;0.20;99.90
3944;DHT22;1986;52.546;13.428;2024-01-06T07:44:00;0.10;99.90
3944;DHT22;1986;52.546;13.428;2024-01-06T07:46:28;0.10;99.90
3944;DHT22;1986;52.546;13.428;2024-01-06T07:48:55;0.00;99.90
3944;DHT22;1986;52.546;13.428;2024-01-06T07:51:24;-0.10;99.90
3944;DHT22;1986;52.546;13.428;2024-01-06T07:53:52;0.00;99.90
3944;DHT22;1986;52.546;13.428;2024-01-06T07:56:20;0.00;99.90
3944;DHT22;1986;52.546;13.428;2024-01-06T07:58:48;0.00;99.90
3944;DHT22;1986;52.546;13.428;2024-01-06T08:01:16;0.00;99.90
3944;DHT22;1986;52.546;13.428;2024-01-06T08:03:43;0.00;99.90
3944;DHT22;1986;52.546;13.428;2024-01-06T08:06:13;0.00;99.90
3944;DHT22;1986;52.546;13.428;2024-01-06T08:08:42;-0.10;99.90
3944;DHT22;1986;52.546;13.428;2024-01-06T08:11:11;0.00;99.90
3944;DHT22;1986;52.546;13.428;2024-01-06T08:13:38;-0.10;99.90
3944;DHT22;1986;52.546;13.428;2024-01-06T08:16:05;-0.10;99.90
3944;DHT22;1986;52.546;13.428;2024-01-06T08:18:32;-0.10;99.90
3944;DHT22;1986;52.546;13.428;2024-01-06T08:20:59;0.00;99.90
3944;DHT22;1986;52.546;13.428;2024-01-06T08:23:27;0.00;99.90
3944;DHT22;1986;52.546;13.428;2024-01-06T08:25:59;-0.10;99.90
3944;DHT22;1986;52.546;13.428;2024-01-06T08:28:26;-0.10;99.90
3944;DHT22;1986;52.546;13.428;2024-01-06T08:30:53;-0.10;99.90
3944;DHT22;1986;52.546;13.428;2024-01-06T08:33:20;-0.10;99.90
3944;DHT22;1986;52.546;13.428;2024-01-06T08:35:47;0.00;99.90
3944;DHT22;1986;52.546;13.428;2024-01-06T08:38:14;0.00;99.90
3944;DHT22;1986;52.546;13.428;2024-01-06T08:40:41;0.10;99.90
3944;DHT22;1986;52.546;13.428;2024-01-06T08:43:09;0.10;99.90
3944;DHT22;1986;52.546;13.428;2024-01-06T08:45:39;0.00;99.90
3944;DHT22;1986;52.546;13.428;2024-01-06T08:48:06;0.00;99.90
3944;DHT22;1986;52.546;13.428;2024-01-06T08:50:33;0.00;99.90
3944;DHT22;1986;52.546;13.428;2024-01-06T08:53:00;0.00;99.90
3944;DHT22;1986;52.546;13.428;2024-01-06T08:55:28;0.00;99.90
3944;DHT22;1986;52.546;13.428;2024-01-06T08:57:55;0.00;99.90
3944;DHT22;1986;52.546;13.428;2024-01-06T09:00:23;0.00;99.90
3944;DHT22;1986;52.546;13.428;2024-01-06T09:02:50;0.00;99.90
3944;DHT22;1986;52.546;13.428;2024-01-06T09:05:17;0.00;99.90
3944;DHT22;1986;52.546;13.428;2024-01-06T09:07:45;0.10;99.90
3944;DHT22;1986;52.546;13.428;2024-01-06T09:10:16;0.00;99.90
3944;DHT22;1986;52.546;13.428;2024-01-06T09:12:47;-0.10;99.90
3944;DHT22;1986;52.546;13.428;2024-01-06T09:15:14;-0.10;99.90
3944;DHT22;1986;52.546;13.428;2024-01-06T09:17:44;-0.10;99.90
3944;DHT22;1986;52.546;13.428;2024-01-06T09:20:11;0.00;99.90
3944;DHT22;1986;52.546;13.428;2024-01-06T09:22:38;0.00;99.90
3944;DHT22;1986;52.546;13.428;2024-01-06T09:25:06;-0.10;99.90
3944;DHT22;1986;52.546;13.428;2024-01-06T09:27:33;0.00;99.90
3944;DHT22;1986;52.546;13.428;2024-01-06T09:30:00;-0.10;99.90
3944;DHT22;1986;52.546;13.428;2024-01-06T09:32:27;-0.10;99.90
3944;DHT22;1986;52.546;13.428;2024-01-06T09:35:06;-0.10;99.90
3944;DHT22;1986;52.546;13.428;2024-01-06T09:37:33;-0.20;99.90
3944;DHT22;1986;52.546;13.428;2024-01-06T09:40:00;-0.10;99.90
3944;DHT22;1986;52.546;13.428;2024-01-06T09:42:28;0.00;99.90
3944;DHT22;1986;52.546;13.428;2024-01-06T09:44:55;0.00;99.90
3944;DHT22;1986;52.546;13.428;2024-01-06T09:47:23;-0.10;99.90
3944;DHT22;1986;52.546;13.428;2024-01-06T09:50:00;-0.20;99.90
3944;DHT22;1986;52.546;13.428;2024-01-06T09:52:32;-0.20;99.90
3944;DHT22;1986;52.546;13.428;2024-01-06T09:55:00;-0.20;99.90
3944;DHT22;1986;52.546;13.428;2024-01-06T09:57:29;-0.20;99.90
3944;DHT22;1986;52.546;13.428;2024-01-06T10:00:01;-0.20;99.90
3944;DHT22;1986;52.546;13.428;2024-01-06T10:02:33;-0.20;99.90
3944;DHT22;1986;52.546;13.428;2024-01-06T10:05:02;-0.20;99.90
3944;DHT22;1986;52.546;13.428;2024-01-06T10:07:32;-0.20;99.90
3944;DHT22;1986;52.546;13.428;2024-01-06T10:10:00;-0.20;99.90
3944;DHT22;1986;52.546;13.428;2024-01-06T10:12:30;-0.10;99.90
3944;DHT22;1986;52.546;13.428;2024-01-06T10:14:57;-0.10;99.90
3944;DHT22;1986;52.546;13.428;2024-01-06T10:17:29;-0.20;99.90
3944;DHT22;1986;52.546;13.428;2024-01-06T10:19:59;-0.20;99.90
3944;DHT22;1986;52.546;13.428;2024-01-06T10:22:30;-0.20;99.90
3944;DHT22;1986;52.546;13.428;2024-01-06T10:25:00;-0.20;99.90
3944;DHT22;1986;52.546;13.428;2024-01-06T10:27:28;-0.30;99.90
3944;DHT22;1986;52.546;13.428;2024-01-06T10:29:55;-0.20;99.90
3944;DHT22;1986;52.546;13.428;2024-01-06T10:32:23;-0.30;99.90
3944;DHT22;1986;52.546;13.428;2024-01-06T10:34:54;-0.20;99.90
3944;DHT22;1986;52.546;13.428;2024-01-06T10:37:23;-0.20;99.90
3944;DHT22;1986;52.546;13.428;2024-01-06T10:42:48;-0.20;99.90
3944;DHT22;1986;52.546;13.428;2024-01-06T10:45:17;-0.30;99.90
3944;DHT22;1986;52.546;13.428;2024-01-06T10:47:48;-0.30;99.90
3944;DHT22;1986;52.546;13.428;2024-01-06T10:50:17;-0.20;99.90
3944;DHT22;1986;52.546;13.428;2024-01-06T10:52:46;-0.20;99.90
3944;DHT22;1986;52.546;13.428;2024-01-06T10:55:15;-0.30;99.90
3944;DHT22;1986;52.546;13.428;2024-01-06T10:57:44;-0.20;99.90
3944;DHT22;1986;52.546;13.428;2024-01-06T11:00:22;-0.20;99.90
3944;DHT22;1986;52.546;13.428;2024-01-06T11:02:50;-0.30;99.90
3944;DHT22;1986;52.546;13.428;2024-01-06T11:05:19;-0.40;99.90
3944;DHT22;1986;52.546;13.428;2024-01-06T11:07:49;-0.30;99.90
3944;DHT22;1986;52.546;13.428;2024-01-06T11:10:21;-0.30;99.90
3944;DHT22;1986;52.546;13.428;2024-01-06T11:13:10;-0.30;99.90
3944;DHT22;1986;52.546;13.428;2024-01-06T11:15:47;-0.20;99.90
3944;DHT22;1986;52.546;13.428;2024-01-06T11:18:33;-0.20;99.90
3944;DHT22;1986;52.546;13.428;2024-01-06T11:21:20;-0.20;99.90
3944;DHT22;1986;52.546;13.428;2024-01-06T11:24:15;-0.30;99.90
3944;DHT22;1986;52.546;13.428;2024-01-06T11:26:49;-0.30;99.90
3944;DHT22;1986;52.546;13.428;2024-01-06T11:29:17;-0.30;99.90
3944;DHT22;1986;52.546;13.428;2024-01-06T11:32:17;-0.30;99.90
3944;DHT22;1986;52.546;13.428;2024-01-06T11:34:48;-0.20;99.90
3944;DHT22;1986;52.546;13.428;2024-01-06T11:37:25;-0.20;99.90
3944;DHT22;1986;52.546;13.428;2024-01-06T11:39:57;-0.20;99.90
3944;DHT22;1986;52.546;13.428;2024-01-06T11:42:32;-0.20;99.90
3944;DHT22;1986;52.546;13.428;2024-01-06T11:45:05;-0.20;99.90
3944;DHT22;1986;52.546;13.428;2024-01-06T11:47:36;-0.30;99.90
3944;DHT22;1986;52.546;13.428;2024-01-06T11:50:06;-0.30;99.90
3944;DHT22;1986;52.546;13.428;2024-01-06T11:52:34;-0.20;99.90
3944;DHT22;1986;52.546;13.428;2024-01-06T11:55:02;-0.10;99.90
3944;DHT22;1986;52.546;13.428;2024-01-06T11:57:30;-0.10;99.90
3944;DHT22;1986;52.546;13.428;2024-01-06T12:00:01;-0.20;99.90
3944;DHT22;1986;52.546;13.428;2024-01-06T12:02:31;-0.30;99.90
3944;DHT22;1986;52.546;13.428;2024-01-06T12:05:00;-0.30;99.90
3944;DHT22;1986;52.546;13.428;2024-01-06T12:07:31;-0.30;99.90
3944;DHT22;1986;52.546;13.428;2024-01-06T12:10:04;-0.30;99.90
3944;DHT22;1986;52.546;13.428;2024-01-06T12:12:33;-0.40;99.90
3944;DHT22;1986;52.546;13.428;2024-01-06T12:15:00;-0.40;99.90
3944;DHT22;1986;52.546;13.428;2024-01-06T12:17:30;-0.40;99.90
3944;DHT22;1986;52.546;13.428;2024-01-06T12:19:57;-0.50;99.90
3944;DHT22;1986;52.546;13.428;2024-01-06T12:22:29;-0.40;99.90
3944;DHT22;1986;52.546;13.428;2024-01-06T12:24:58;-0.40;99.90
3944;DHT22;1986;52.546;13.428;2024-01-06T12:27:27;-0.40;99.90
3944;DHT22;1986;52.546;13.428;2024-01-06T12:29:55;-0.40;99.90
3944;DHT22;1986;52.546;13.428;2024-01-06T12:32:23;-0.40;99.90
3944;DHT22;1986;52.546;13.428;2024-01-06T12:34:52;-0.30;99.90
3944;DHT22;1986;52.546;13.428;2024-01-06T12:37:19;-0.30;99.90
3944;DHT22;1986;52.546;13.428;2024-01-06T12:39:47;-0.40;99.90
3944;DHT22;1986;52.546;13.428;2024-01-06T12:42:16;-0.40;99.90
3944;DHT22;1986;52.546;13.428;2024-01-06T12:44:43;-0.30;99.90
3944;DHT22;1986;52.546;13.428;2024-01-06T12:47:15;-0.20;99.90
3944;DHT22;1986;52.546;13.428;2024-01-06T12:49:42;-0.30;99.90
3944;DHT22;1986;52.546;13.428;2024-01-06T12:52:10;-0.30;99.90
3944;DHT22;1986;52.546;13.428;2024-01-06T12:54:38;-0.30;99.90
3944;DHT22;1986;52.546;13.428;2024-01-06T12:57:09;-0.30;99.90
3944;DHT22;1986;52.546;13.428;2024-01-06T12:59:37;-0.40;99.90
3944;DHT22;1986;52.546;13.428;2024-01-06T13:02:05;-0.40;99.90
3944;DHT22;1986;52.546;13.428;2024-01-06T13:04:32;-0.30;99.90
3944;DHT22;1986;52.546;13.428;2024-01-06T13:07:00;-0.30;99.90
3944;DHT22;1986;52.546;13.428;2024-01-06T13:09:27;-0.30;99.90
3944;DHT22;1986;52.546;13.428;2024-01-06T13:11:54;-0.30;99.90
3944;DHT22;1986;52.546;13.428;2024-01-06T13:14:27;-0.30;99.90
3944;DHT22;1986;52.546;13.428;2024-01-06T13:16:54;-0.30;99.90
3944;DHT22;1986;52.546;13.428;2024-01-06T13:19:21;-0.40;99.90
3944;DHT22;1986;52.546;13.428;2024-01-06T13:21:48;-0.30;99.90
3944;DHT22;1986;52.546;13.428;2024-01-06T13:24:15;-0.30;99.90
3944;DHT22;1986;52.546;13.428;2024-01-06T13:26:42;-0.30;99.90
3944;DHT22;1986;52.546;13.428;2024-01-06T13:29:10;-0.30;99.90
3944;DHT22;1986;52.546;13.428;2024-01-06T13:31:40;-0.30;99.90
3944;DHT22;1986;52.546;13.428;2024-01-06T13:34:07;-0.20;99.90
3944;DHT22;1986;52.546;13.428;2024-01-06T13:36:37;-0.30;99.90
3944;DHT22;1986;52.546;13.428;2024-01-06T13:39:06;-0.20;99.90
3944;DHT22;1986;52.546;13.428;2024-01-06T13:41:34;-0.20;99.90
3944;DHT22;1986;52.546;13.428;2024-01-06T13:44:01;-0.30;99.90
3944;DHT22;1986;52.546;13.428;2024-01-06T13:46:28;-0.30;99.90
3944;DHT22;1986;52.546;13.428;2024-01-06T13:48:56;-0.30;99.90
3944;DHT22;1986;52.546;13.428;2024-01-06T13:51:26;-0.40;99.90
3944;DHT22;1986;52.546;13.428;2024-01-06T13:53:54;-0.30;99.90
3944;DHT22;1986;52.546;13.428;2024-01-06T13:56:23;-0.30;99.90
3944;DHT22;1986;52.546;13.428;2024-01-06T13:58:50;-0.30;99.90
3944;DHT22;1986;52.546;13.428;2024-01-06T14:01:17;-0.30;99.90
3944;DHT22;1986;52.546;13.428;2024-01-06T14:03:44;-0.30;99.90
3944;DHT22;1986;52.546;13.428;2024-01-06T14:06:17;-0.30;99.90
3944;DHT22;1986;52.546;13.428;2024-01-06T14:08:45;-0.30;99.90
3944;DHT22;1986;52.546;13.428;2024-01-06T14:11:12;-0.40;99.90
3944;DHT22;1986;52.546;13.428;2024-01-06T14:13:39;-0.30;99.90
3944;DHT22;1986;52.546;13.428;2024-01-06T14:16:06;-0.40;99.90
3944;DHT22;1986;52.546;13.428;2024-01-06T14:18:33;-0.40;99.90
3944;DHT22;1986;52.546;13.428;2024-01-06T14:21:00;-0.30;99.90
3944;DHT22;1986;52.546;13.428;2024-01-06T14:23:29;-0.30;99.90
3944;DHT22;1986;52.546;13.428;2024-01-06T14:25:58;-0.30;99.90
3944;DHT22;1986;52.546;13.428;2024-01-06T14:28:25;-0.20;99.90
3944;DHT22;1986;52.546;13.428;2024-01-06T14:30:52;-0.30;99.90
3944;DHT22;1986;52.546;13.428;2024-01-06T14:33:20;-0.20;99.90
3944;DHT22;1986;52.546;13.428;2024-01-06T14:35:47;-0.30;99.90
3944;DHT22;1986;52.546;13.428;2024-01-06T14:38:14;-0.30;99.90
3944;DHT22;1986;52.546;13.428;2024-01-06T14:40:43;-0.20;99.90
3944;DHT22;1986;52.546;13.428;2024-01-06T14:43:10;-0.20;99.90
3944;DHT22;1986;52.546;13.428;2024-01-06T14:45:37;-0.20;99.90
3944;DHT22;1986;52.546;13.428;2024-01-06T14:48:06;-0.20;99.90
3944;DHT22;1986;52.546;13.428;2024-01-06T14:50:32;-0.20;99.90
3944;DHT22;1986;52.546;13.428;2024-01-06T14:53:00;-0.30;99.90
3944;DHT22;1986;52.546;13.428;2024-01-06T14:55:27;-0.30;99.90
3944;DHT22;1986;52.546;13.428;2024-01-06T14:57:55;-0.20;99.90
3944;DHT22;1986;52.546;13.428;2024-01-06T15:00:22;-0.30;99.90
3944;DHT22;1986;52.546;13.428;2024-01-06T15:02:49;-0.20;99.90
3944;DHT22;1986;52.546;13.428;2024-01-06T15:05:17;-0.20;99.90
3944;DHT22;1986;52.546;13.428;2024-01-06T15:07:44;-0.20;99.90
3944;DHT22;1986;52.546;13.428;2024-01-06T15:10:12;-0.20;99.90
3944;DHT22;1986;52.546;13.428;2024-01-06T15:12:40;-0.20;99.90
3944;DHT22;1986;52.546;13.428;2024-01-06T15:15:12;-0.20;99.90
3944;DHT22;1986;52.546;13.428;2024-01-06T15:17:41;-0.20;99.90
3944;DHT22;1986;52.546;13.428;2024-01-06T15:20:08;-0.10;99.90
3944;DHT22;1986;52.546;13.428;2024-01-06T15:22:35;-0.20;99.90
3944;DHT22;1986;52.546;13.428;2024-01-06T15:25:05;-0.10;99.90
3944;DHT22;1986;52.546;13.428;2024-01-06T15:27:33;-0.10;99.90
3944;DHT22;1986;52.546;13.428;2024-01-06T15:30:00;-0.10;99.90
3944;DHT22;1986;52.546;13.428;2024-01-06T15:32:34;-0.20;99.90
3944;DHT22;1986;52.546;13.428;2024-01-06T15:35:01;-0.20;99.90
3944;DHT22;1986;52.546;13.428;2024-01-06T15:37:29;-0.20;99.90
3944;DHT22;1986;52.546;13.428;2024-01-06T15:39:56;-0.10;99.90
3944;DHT22;1986;52.546;13.428;2024-01-06T15:42:23;-0.10;99.90
3944;DHT22;1986;52.546;13.428;2024-01-06T15:44:50;-0.10;99.90
3944;DHT22;1986;52.546;13.428;2024-01-06T15:47:20;-0.10;99.90
3944;DHT22;1986;52.546;13.428;2024-01-06T15:49:51;-0.20;99.90
3944;DHT22;1986;52.546;13.428;2024-01-06T15:52:19;-0.20;99.90
3944;DHT22;1986;52.546;13.428;2024-01-06T15:54:48;-0.20;99.90
3944;DHT22;1986;52.546;13.428;2024-01-06T15:57:19;-0.20;99.90
3944;DHT22;1986;52.546;13.428;2024-01-06T15:59:46;-0.30;99.90
3944;DHT22;1986;52.546;13.428;2024-01-06T16:02:13;-0.20;99.90
3944;DHT22;1986;52.546;13.428;2024-01-06T16:04:40;-0.30;99.90